Terminal Aerodrome Forecast
Issued by NWS

Home | Current Version | Previous Version | Text Only | Print | Product List | Glossary On
Versions: 1 2 3 4 5 6 7 8 9 10 11 12 13 14 15 16 17 18 19 20 21 22 23 24 25 26
000
FTUS43 KDLH 290024 AAA
TAFHYR
TAF AMD
KHYR 290024Z 2900/2924 VRB04KT 6SM -RA VCTS SCT008 OVC025CB
     FM290200 VRB03KT 3SM BR VCTS BKN006 OVC020CB
     FM290600 VRB02KT 2SM -DZ BR VCSH OVC003
     FM291400 27007KT 6SM BR BKN006 OVC018
     FM292000 27008KT P6SM VCSH BKN035=

USA.gov is the U.S. government's official web portal to all federal, state and local government web resources and services.